sensor_id;sensor_type;location;lat;lon;timestamp;P1;durP1;ratioP1;P2;durP2;ratioP2
38972;SDS011;25333;50.762;4.470;2022-12-07T00:01:14;16.38;;;13.38;;
38972;SDS011;25333;50.762;4.470;2022-12-07T00:03:45;19.42;;;13.20;;
38972;SDS011;25333;50.762;4.470;2022-12-07T00:06:13;17.83;;;13.50;;
38972;SDS011;25333;50.762;4.470;2022-12-07T00:08:39;18.05;;;12.50;;
38972;SDS011;25333;50.762;4.470;2022-12-07T00:11:06;15.57;;;12.68;;
38972;SDS011;25333;50.762;4.470;2022-12-07T00:13:35;16.13;;;12.52;;
38972;SDS011;25333;50.762;4.470;2022-12-07T00:16:03;16.15;;;12.73;;
38972;SDS011;25333;50.762;4.470;2022-12-07T00:18:31;15.85;;;12.57;;
38972;SDS011;25333;50.762;4.470;2022-12-07T00:21:07;17.85;;;13.25;;
38972;SDS011;25333;50.762;4.470;2022-12-07T00:23:38;18.25;;;13.48;;
38972;SDS011;25333;50.762;4.470;2022-12-07T00:26:09;17.83;;;13.93;;
38972;SDS011;25333;50.762;4.470;2022-12-07T00:28:37;16.75;;;14.23;;
38972;SDS011;25333;50.762;4.470;2022-12-07T00:31:04;16.92;;;13.88;;
38972;SDS011;25333;50.762;4.470;2022-12-07T00:33:32;16.88;;;15.07;;
38972;SDS011;25333;50.762;4.470;2022-12-07T00:35:59;17.48;;;14.20;;
38972;SDS011;25333;50.762;4.470;2022-12-07T00:38:26;20.50;;;14.47;;
38972;SDS011;25333;50.762;4.470;2022-12-07T00:40:57;18.00;;;15.18;;
38972;SDS011;25333;50.762;4.470;2022-12-07T00:43:24;16.13;;;14.00;;
38972;SDS011;25333;50.762;4.470;2022-12-07T00:45:50;16.85;;;12.75;;
38972;SDS011;25333;50.762;4.470;2022-12-07T00:48:16;20.88;;;14.48;;
38972;SDS011;25333;50.762;4.470;2022-12-07T00:50:41;17.03;;;14.67;;
38972;SDS011;25333;50.762;4.470;2022-12-07T00:53:07;15.20;;;13.33;;
38972;SDS011;25333;50.762;4.470;2022-12-07T00:55:33;17.38;;;14.05;;
38972;SDS011;25333;50.762;4.470;2022-12-07T00:57:59;19.90;;;15.02;;
38972;SDS011;25333;50.762;4.470;2022-12-07T01:00:25;18.27;;;14.32;;
38972;SDS011;25333;50.762;4.470;2022-12-07T01:02:50;17.87;;;14.33;;
38972;SDS011;25333;50.762;4.470;2022-12-07T01:05:16;19.52;;;15.40;;
38972;SDS011;25333;50.762;4.470;2022-12-07T01:07:42;17.57;;;14.10;;
38972;SDS011;25333;50.762;4.470;2022-12-07T01:10:08;17.70;;;14.50;;
38972;SDS011;25333;50.762;4.470;2022-12-07T01:12:34;20.15;;;15.00;;
38972;SDS011;25333;50.762;4.470;2022-12-07T01:14:59;16.67;;;12.67;;
38972;SDS011;25333;50.762;4.470;2022-12-07T01:17:25;17.57;;;12.47;;
38972;SDS011;25333;50.762;4.470;2022-12-07T01:19:50;15.68;;;13.30;;
38972;SDS011;25333;50.762;4.470;2022-12-07T01:22:16;15.97;;;12.83;;
38972;SDS011;25333;50.762;4.470;2022-12-07T01:24:41;17.58;;;14.27;;
38972;SDS011;25333;50.762;4.470;2022-12-07T01:27:07;19.10;;;13.57;;
38972;SDS011;25333;50.762;4.470;2022-12-07T01:29:33;17.10;;;12.73;;
38972;SDS011;25333;50.762;4.470;2022-12-07T01:31:58;17.48;;;13.25;;
38972;SDS011;25333;50.762;4.470;2022-12-07T01:34:24;17.23;;;13.43;;
38972;SDS011;25333;50.762;4.470;2022-12-07T01:36:49;18.57;;;12.03;;
38972;SDS011;25333;50.762;4.470;2022-12-07T01:39:15;14.70;;;12.30;;
38972;SDS011;25333;50.762;4.470;2022-12-07T01:41:41;14.97;;;11.33;;
38972;SDS011;25333;50.762;4.470;2022-12-07T01:46:40;14.98;;;11.13;;
38972;SDS011;25333;50.762;4.470;2022-12-07T01:49:13;15.35;;;12.00;;
38972;SDS011;25333;50.762;4.470;2022-12-07T01:52:07;13.98;;;12.05;;
38972;SDS011;25333;50.762;4.470;2022-12-07T01:54:37;14.88;;;13.10;;
38972;SDS011;25333;50.762;4.470;2022-12-07T01:57:03;16.45;;;11.93;;
38972;SDS011;25333;50.762;4.470;2022-12-07T01:59:29;16.55;;;12.65;;
38972;SDS011;25333;50.762;4.470;2022-12-07T02:01:55;16.57;;;13.27;;
38972;SDS011;25333;50.762;4.470;2022-12-07T02:04:22;19.98;;;12.80;;
38972;SDS011;25333;50.762;4.470;2022-12-07T02:06:48;16.83;;;12.73;;
38972;SDS011;25333;50.762;4.470;2022-12-07T02:09:14;17.75;;;13.27;;
38972;SDS011;25333;50.762;4.470;2022-12-07T02:11:40;16.30;;;12.43;;
38972;SDS011;25333;50.762;4.470;2022-12-07T02:14:06;19.52;;;12.55;;
38972;SDS011;25333;50.762;4.470;2022-12-07T02:16:41;23.17;;;14.53;;
38972;SDS011;25333;50.762;4.470;2022-12-07T02:28:29;16.38;;;12.30;;
38972;SDS011;25333;50.762;4.470;2022-12-07T02:31:00;14.98;;;13.40;;
38972;SDS011;25333;50.762;4.470;2022-12-07T02:33:32;15.70;;;12.95;;
38972;SDS011;25333;50.762;4.470;2022-12-07T02:36:03;15.27;;;13.13;;
38972;SDS011;25333;50.762;4.470;2022-12-07T02:41:09;15.85;;;12.82;;
38972;SDS011;25333;50.762;4.470;2022-12-07T02:43:53;17.38;;;12.00;;
38972;SDS011;25333;50.762;4.470;2022-12-07T02:46:27;12.75;;;10.57;;
38972;SDS011;25333;50.762;4.470;2022-12-07T02:48:58;14.43;;;11.10;;
38972;SDS011;25333;50.762;4.470;2022-12-07T02:51:25;16.03;;;12.03;;
38972;SDS011;25333;50.762;4.470;2022-12-07T02:53:54;15.07;;;11.52;;
38972;SDS011;25333;50.762;4.470;2022-12-07T03:07:12;12.40;;;9.85;;
38972;SDS011;25333;50.762;4.470;2022-12-07T03:09:59;12.33;;;10.03;;
38972;SDS011;25333;50.762;4.470;2022-12-07T03:12:35;11.93;;;9.57;;
38972;SDS011;25333;50.762;4.470;2022-12-07T03:15:14;11.27;;;8.82;;
38972;SDS011;25333;50.762;4.470;2022-12-07T03:17:46;10.55;;;8.63;;
38972;SDS011;25333;50.762;4.470;2022-12-07T03:20:15;10.95;;;8.55;;
38972;SDS011;25333;50.762;4.470;2022-12-07T03:22:46;13.50;;;9.05;;
38972;SDS011;25333;50.762;4.470;2022-12-07T03:25:13;11.52;;;8.85;;
38972;SDS011;25333;50.762;4.470;2022-12-07T03:27:46;8.98;;;8.05;;
38972;SDS011;25333;50.762;4.470;2022-12-07T03:30:24;10.03;;;8.53;;
38972;SDS011;25333;50.762;4.470;2022-12-07T03:33:00;11.85;;;9.18;;
38972;SDS011;25333;50.762;4.470;2022-12-07T03:35:34;10.82;;;8.18;;
38972;SDS011;25333;50.762;4.470;2022-12-07T03:38:20;12.43;;;8.52;;
38972;SDS011;25333;50.762;4.470;2022-12-07T03:43:33;10.75;;;8.65;;
38972;SDS011;25333;50.762;4.470;2022-12-07T03:46:06;9.82;;;7.43;;
38972;SDS011;25333;50.762;4.470;2022-12-07T03:48:46;10.25;;;7.05;;
38972;SDS011;25333;50.762;4.470;2022-12-07T03:51:28;10.73;;;8.10;;
38972;SDS011;25333;50.762;4.470;2022-12-07T03:54:02;8.80;;;7.00;;
38972;SDS011;25333;50.762;4.470;2022-12-07T03:56:38;9.87;;;7.60;;
38972;SDS011;25333;50.762;4.470;2022-12-07T03:59:06;9.90;;;7.28;;
38972;SDS011;25333;50.762;4.470;2022-12-07T04:01:32;11.60;;;7.68;;
38972;SDS011;25333;50.762;4.470;2022-12-07T04:03:58;9.70;;;8.00;;
38972;SDS011;25333;50.762;4.470;2022-12-07T04:06:24;8.63;;;6.50;;
38972;SDS011;25333;50.762;4.470;2022-12-07T04:08:49;8.85;;;6.80;;
38972;SDS011;25333;50.762;4.470;2022-12-07T04:11:15;11.27;;;6.83;;
38972;SDS011;25333;50.762;4.470;2022-12-07T04:13:40;12.67;;;7.83;;
38972;SDS011;25333;50.762;4.470;2022-12-07T04:16:25;8.85;;;7.13;;
38972;SDS011;25333;50.762;4.470;2022-12-07T04:18:50;8.17;;;7.07;;
38972;SDS011;25333;50.762;4.470;2022-12-07T04:21:16;11.27;;;7.28;;
38972;SDS011;25333;50.762;4.470;2022-12-07T04:23:41;9.50;;;6.88;;
38972;SDS011;25333;50.762;4.470;2022-12-07T04:26:07;8.77;;;6.50;;
38972;SDS011;25333;50.762;4.470;2022-12-07T04:28:33;9.00;;;6.50;;
38972;SDS011;25333;50.762;4.470;2022-12-07T04:30:58;6.90;;;5.93;;
38972;SDS011;25333;50.762;4.470;2022-12-07T04:33:24;7.73;;;6.37;;
38972;SDS011;25333;50.762;4.470;2022-12-07T04:35:49;8.38;;;7.05;;
38972;SDS011;25333;50.762;4.470;2022-12-07T04:38:15;7.77;;;6.50;;
38972;SDS011;25333;50.762;4.470;2022-12-07T04:40:40;8.27;;;6.57;;
38972;SDS011;25333;50.762;4.470;2022-12-07T04:43:06;8.05;;;6.53;;
38972;SDS011;25333;50.762;4.470;2022-12-07T04:45:32;8.33;;;6.80;;
38972;SDS011;25333;50.762;4.470;2022-12-07T04:47:57;9.52;;;7.93;;
38972;SDS011;25333;50.762;4.470;2022-12-07T04:50:23;8.40;;;6.90;;
38972;SDS011;25333;50.762;4.470;2022-12-07T04:52:48;9.67;;;6.20;;
38972;SDS011;25333;50.762;4.470;2022-12-07T04:55:14;8.98;;;7.72;;
38972;SDS011;25333;50.762;4.470;2022-12-07T04:57:39;8.60;;;6.57;;
38972;SDS011;25333;50.762;4.470;2022-12-07T05:00:05;7.28;;;6.35;;
38972;SDS011;25333;50.762;4.470;2022-12-07T05:02:32;10.57;;;7.27;;
38972;SDS011;25333;50.762;4.470;2022-12-07T05:04:58;8.30;;;7.30;;
38972;SDS011;25333;50.762;4.470;2022-12-07T05:07:24;9.55;;;7.50;;
38972;SDS011;25333;50.762;4.470;2022-12-07T05:09:49;9.77;;;8.23;;
38972;SDS011;25333;50.762;4.470;2022-12-07T05:12:15;9.90;;;8.20;;
38972;SDS011;25333;50.762;4.470;2022-12-07T05:14:40;9.27;;;7.32;;
38972;SDS011;25333;50.762;4.470;2022-12-07T05:17:06;12.13;;;8.30;;
38972;SDS011;25333;50.762;4.470;2022-12-07T05:19:31;10.35;;;8.80;;
38972;SDS011;25333;50.762;4.470;2022-12-07T05:21:57;13.77;;;9.73;;
38972;SDS011;25333;50.762;4.470;2022-12-07T05:24:23;12.43;;;9.07;;
38972;SDS011;25333;50.762;4.470;2022-12-07T05:26:48;12.25;;;8.50;;
38972;SDS011;25333;50.762;4.470;2022-12-07T05:29:15;11.45;;;9.27;;
38972;SDS011;25333;50.762;4.470;2022-12-07T05:31:42;11.80;;;8.70;;
38972;SDS011;25333;50.762;4.470;2022-12-07T05:34:08;11.32;;;8.48;;
38972;SDS011;25333;50.762;4.470;2022-12-07T05:36:34;11.65;;;8.25;;
38972;SDS011;25333;50.762;4.470;2022-12-07T05:38:59;10.77;;;8.57;;
38972;SDS011;25333;50.762;4.470;2022-12-07T05:41:25;11.30;;;9.23;;
38972;SDS011;25333;50.762;4.470;2022-12-07T05:44:09;12.32;;;8.55;;
38972;SDS011;25333;50.762;4.470;2022-12-07T05:46:35;11.93;;;9.55;;
38972;SDS011;25333;50.762;4.470;2022-12-07T05:49:01;12.45;;;9.13;;
38972;SDS011;25333;50.762;4.470;2022-12-07T05:51:27;10.65;;;8.10;;
38972;SDS011;25333;50.762;4.470;2022-12-07T05:53:52;10.10;;;8.97;;
38972;SDS011;25333;50.762;4.470;2022-12-07T05:56:18;13.60;;;9.23;;
38972;SDS011;25333;50.762;4.470;2022-12-07T05:58:43;11.20;;;9.60;;
38972;SDS011;25333;50.762;4.470;2022-12-07T06:01:28;10.65;;;9.20;;
38972;SDS011;25333;50.762;4.470;2022-12-07T06:03:53;11.10;;;9.20;;
38972;SDS011;25333;50.762;4.470;2022-12-07T06:06:19;13.50;;;8.93;;
38972;SDS011;25333;50.762;4.470;2022-12-07T06:08:44;11.77;;;9.23;;
38972;SDS011;25333;50.762;4.470;2022-12-07T06:11:10;10.27;;;8.95;;
38972;SDS011;25333;50.762;4.470;2022-12-07T06:13:54;13.27;;;10.15;;
38972;SDS011;25333;50.762;4.470;2022-12-07T06:16:20;13.73;;;10.33;;
38972;SDS011;25333;50.762;4.470;2022-12-07T06:18:46;15.55;;;11.10;;
38972;SDS011;25333;50.762;4.470;2022-12-07T06:21:11;9.87;;;8.80;;
38972;SDS011;25333;50.762;4.470;2022-12-07T06:23:37;11.80;;;9.65;;
38972;SDS011;25333;50.762;4.470;2022-12-07T06:26:03;10.75;;;8.45;;
38972;SDS011;25333;50.762;4.470;2022-12-07T06:28:28;11.47;;;9.07;;
38972;SDS011;25333;50.762;4.470;2022-12-07T06:30:57;11.85;;;8.98;;
38972;SDS011;25333;50.762;4.470;2022-12-07T06:33:24;13.50;;;9.15;;
38972;SDS011;25333;50.762;4.470;2022-12-07T06:35:49;11.90;;;8.05;;
38972;SDS011;25333;50.762;4.470;2022-12-07T06:38:16;8.65;;;7.50;;
38972;SDS011;25333;50.762;4.470;2022-12-07T06:40:41;9.40;;;7.97;;
38972;SDS011;25333;50.762;4.470;2022-12-07T06:43:07;11.60;;;7.70;;
38972;SDS011;25333;50.762;4.470;2022-12-07T06:45:32;8.38;;;7.03;;
38972;SDS011;25333;50.762;4.470;2022-12-07T06:47:58;10.03;;;7.30;;
38972;SDS011;25333;50.762;4.470;2022-12-07T06:50:24;8.52;;;6.35;;
38972;SDS011;25333;50.762;4.470;2022-12-07T06:52:50;8.27;;;6.97;;
38972;SDS011;25333;50.762;4.470;2022-12-07T06:55:16;10.75;;;7.60;;
38972;SDS011;25333;50.762;4.470;2022-12-07T06:57:42;10.57;;;7.25;;
38972;SDS011;25333;50.762;4.470;2022-12-07T07:00:08;9.53;;;7.63;;
38972;SDS011;25333;50.762;4.470;2022-12-07T07:02:34;9.50;;;7.38;;
38972;SDS011;25333;50.762;4.470;2022-12-07T07:05:00;10.53;;;6.60;;
38972;SDS011;25333;50.762;4.470;2022-12-07T07:07:25;9.88;;;7.65;;
38972;SDS011;25333;50.762;4.470;2022-12-07T07:09:51;8.25;;;6.88;;
38972;SDS011;25333;50.762;4.470;2022-12-07T07:12:17;8.03;;;6.30;;
38972;SDS011;25333;50.762;4.470;2022-12-07T07:14:42;10.27;;;7.70;;
38972;SDS011;25333;50.762;4.470;2022-12-07T07:17:08;8.45;;;7.13;;
38972;SDS011;25333;50.762;4.470;2022-12-07T07:19:34;9.05;;;7.72;;
38972;SDS011;25333;50.762;4.470;2022-12-07T07:21:59;7.33;;;6.57;;
38972;SDS011;25333;50.762;4.470;2022-12-07T07:24:25;9.48;;;7.80;;
38972;SDS011;25333;50.762;4.470;2022-12-07T07:26:51;10.82;;;7.40;;
38972;SDS011;25333;50.762;4.470;2022-12-07T07:29:16;11.23;;;7.77;;
38972;SDS011;25333;50.762;4.470;2022-12-07T07:31:42;12.10;;;7.75;;
38972;SDS011;25333;50.762;4.470;2022-12-07T07:34:08;10.35;;;7.88;;
38972;SDS011;25333;50.762;4.470;2022-12-07T07:36:33;8.43;;;6.67;;
38972;SDS011;25333;50.762;4.470;2022-12-07T07:38:59;9.57;;;7.18;;
38972;SDS011;25333;50.762;4.470;2022-12-07T07:41:24;8.07;;;6.37;;
38972;SDS011;25333;50.762;4.470;2022-12-07T07:43:50;8.53;;;6.60;;
38972;SDS011;25333;50.762;4.470;2022-12-07T07:46:15;12.18;;;8.35;;
38972;SDS011;25333;50.762;4.470;2022-12-07T07:48:41;10.17;;;7.27;;
38972;SDS011;25333;50.762;4.470;2022-12-07T07:51:07;11.55;;;9.40;;
38972;SDS011;25333;50.762;4.470;2022-12-07T07:53:33;9.40;;;8.00;;
38972;SDS011;25333;50.762;4.470;2022-12-07T07:55:59;10.10;;;7.93;;
38972;SDS011;25333;50.762;4.470;2022-12-07T07:58:24;10.50;;;8.50;;
38972;SDS011;25333;50.762;4.470;2022-12-07T08:00:50;10.18;;;7.72;;
38972;SDS011;25333;50.762;4.470;2022-12-07T08:03:16;9.63;;;7.80;;
38972;SDS011;25333;50.762;4.470;2022-12-07T08:05:42;10.83;;;8.23;;
38972;SDS011;25333;50.762;4.470;2022-12-07T08:08:07;10.27;;;7.72;;
38972;SDS011;25333;50.762;4.470;2022-12-07T08:10:33;12.05;;;7.38;;
38972;SDS011;25333;50.762;4.470;2022-12-07T08:13:00;8.13;;;6.78;;
38972;SDS011;25333;50.762;4.470;2022-12-07T08:15:39;11.20;;;7.97;;
38972;SDS011;25333;50.762;4.470;2022-12-07T08:18:06;8.35;;;7.55;;
38972;SDS011;25333;50.762;4.470;2022-12-07T08:20:33;11.23;;;7.93;;
38972;SDS011;25333;50.762;4.470;2022-12-07T08:23:00;8.88;;;6.13;;
38972;SDS011;25333;50.762;4.470;2022-12-07T08:25:25;9.17;;;6.77;;
38972;SDS011;25333;50.762;4.470;2022-12-07T08:27:51;9.73;;;7.15;;
38972;SDS011;25333;50.762;4.470;2022-12-07T08:30:17;8.77;;;7.37;;
38972;SDS011;25333;50.762;4.470;2022-12-07T08:32:44;9.77;;;7.20;;
38972;SDS011;25333;50.762;4.470;2022-12-07T08:35:10;8.95;;;7.22;;
38972;SDS011;25333;50.762;4.470;2022-12-07T08:37:36;10.02;;;7.93;;
38972;SDS011;25333;50.762;4.470;2022-12-07T08:40:03;8.30;;;6.43;;
38972;SDS011;25333;50.762;4.470;2022-12-07T08:42:29;9.95;;;6.97;;
38972;SDS011;25333;50.762;4.470;2022-12-07T08:45:03;11.57;;;7.78;;
38972;SDS011;25333;50.762;4.470;2022-12-07T08:47:30;9.20;;;7.20;;
38972;SDS011;25333;50.762;4.470;2022-12-07T08:49:56;11.68;;;7.88;;
38972;SDS011;25333;50.762;4.470;2022-12-07T08:52:28;9.90;;;7.93;;
38972;SDS011;25333;50.762;4.470;2022-12-07T08:54:54;10.00;;;7.53;;
38972;SDS011;25333;50.762;4.470;2022-12-07T08:57:21;9.25;;;7.05;;
38972;SDS011;25333;50.762;4.470;2022-12-07T08:59:46;10.52;;;7.43;;
38972;SDS011;25333;50.762;4.470;2022-12-07T09:02:12;8.90;;;7.05;;
38972;SDS011;25333;50.762;4.470;2022-12-07T09:04:38;8.97;;;6.97;;
38972;SDS011;25333;50.762;4.470;2022-12-07T09:07:03;9.48;;;7.57;;
38972;SDS011;25333;50.762;4.470;2022-12-07T09:09:29;11.13;;;7.57;;
38972;SDS011;25333;50.762;4.470;2022-12-07T09:11:55;14.90;;;7.80;;
38972;SDS011;25333;50.762;4.470;2022-12-07T09:14:20;10.33;;;7.67;;
38972;SDS011;25333;50.762;4.470;2022-12-07T09:16:46;12.32;;;7.93;;
38972;SDS011;25333;50.762;4.470;2022-12-07T09:19:12;11.17;;;8.30;;
38972;SDS011;25333;50.762;4.470;2022-12-07T09:21:37;11.13;;;8.52;;
38972;SDS011;25333;50.762;4.470;2022-12-07T09:24:03;13.07;;;8.80;;
38972;SDS011;25333;50.762;4.470;2022-12-07T09:26:29;12.23;;;7.50;;
38972;SDS011;25333;50.762;4.470;2022-12-07T09:28:54;14.20;;;8.65;;
38972;SDS011;25333;50.762;4.470;2022-12-07T09:31:20;12.18;;;8.07;;
38972;SDS011;25333;50.762;4.470;2022-12-07T09:33:45;12.63;;;9.03;;
38972;SDS011;25333;50.762;4.470;2022-12-07T09:36:11;10.88;;;8.20;;
38972;SDS011;25333;50.762;4.470;2022-12-07T09:38:37;11.43;;;7.20;;
38972;SDS011;25333;50.762;4.470;2022-12-07T09:41:06;10.40;;;6.88;;
38972;SDS011;25333;50.762;4.470;2022-12-07T09:43:33;10.82;;;7.55;;
38972;SDS011;25333;50.762;4.470;2022-12-07T09:46:01;10.13;;;7.05;;
38972;SDS011;25333;50.762;4.470;2022-12-07T09:50:58;13.70;;;7.72;;
38972;SDS011;25333;50.762;4.470;2022-12-07T09:53:30;11.05;;;6.57;;
38972;SDS011;25333;50.762;4.470;2022-12-07T09:55:58;9.75;;;6.95;;
38972;SDS011;25333;50.762;4.470;2022-12-07T09:58:25;10.85;;;6.22;;
38972;SDS011;25333;50.762;4.470;2022-12-07T10:03:36;12.52;;;8.07;;
38972;SDS011;25333;50.762;4.470;2022-12-07T10:06:03;13.38;;;7.32;;
38972;SDS011;25333;50.762;4.470;2022-12-07T10:08:30;10.07;;;6.63;;
38972;SDS011;25333;50.762;4.470;2022-12-07T10:10:56;11.07;;;7.97;;
38972;SDS011;25333;50.762;4.470;2022-12-07T10:13:33;10.48;;;7.75;;
38972;SDS011;25333;50.762;4.470;2022-12-07T10:16:01;13.50;;;8.10;;
38972;SDS011;25333;50.762;4.470;2022-12-07T10:18:29;11.80;;;7.20;;
38972;SDS011;25333;50.762;4.470;2022-12-07T10:23:27;12.82;;;6.90;;
38972;SDS011;25333;50.762;4.470;2022-12-07T10:25:53;10.30;;;7.73;;
38972;SDS011;25333;50.762;4.470;2022-12-07T10:28:20;9.52;;;6.38;;
38972;SDS011;25333;50.762;4.470;2022-12-07T10:31:03;9.70;;;6.63;;
38972;SDS011;25333;50.762;4.470;2022-12-07T10:33:49;11.10;;;6.47;;
38972;SDS011;25333;50.762;4.470;2022-12-07T10:36:18;10.70;;;7.75;;
38972;SDS011;25333;50.762;4.470;2022-12-07T10:39:02;11.52;;;6.82;;
38972;SDS011;25333;50.762;4.470;2022-12-07T10:41:47;9.30;;;6.40;;
38972;SDS011;25333;50.762;4.470;2022-12-07T10:44:28;9.60;;;6.95;;
38972;SDS011;25333;50.762;4.470;2022-12-07T11:04:07;9.00;;;6.22;;
38972;SDS011;25333;50.762;4.470;2022-12-07T11:18:05;8.93;;;6.18;;
38972;SDS011;25333;50.762;4.470;2022-12-07T11:20:21;9.55;;;5.43;;
38972;SDS011;25333;50.762;4.470;2022-12-07T11:34:19;8.70;;;4.97;;
38972;SDS011;25333;50.762;4.470;2022-12-07T11:36:51;7.47;;;4.97;;
38972;SDS011;25333;50.762;4.470;2022-12-07T11:41:48;12.68;;;5.63;;
38972;SDS011;25333;50.762;4.470;2022-12-07T11:47:00;8.77;;;5.30;;
38972;SDS011;25333;50.762;4.470;2022-12-07T11:52:01;9.00;;;4.60;;
38972;SDS011;25333;50.762;4.470;2022-12-07T11:54:32;8.35;;;4.63;;
38972;SDS011;25333;50.762;4.470;2022-12-07T11:57:09;9.98;;;5.18;;
38972;SDS011;25333;50.762;4.470;2022-12-07T12:00:01;7.85;;;5.00;;
38972;SDS011;25333;50.762;4.470;2022-12-07T12:03:30;7.05;;;4.53;;
38972;SDS011;25333;50.762;4.470;2022-12-07T12:05:26;9.20;;;4.97;;
38972;SDS011;25333;50.762;4.470;2022-12-07T12:10:37;8.73;;;4.32;;
38972;SDS011;25333;50.762;4.470;2022-12-07T12:13:23;13.27;;;5.53;;
38972;SDS011;25333;50.762;4.470;2022-12-07T12:16:30;8.70;;;4.85;;
38972;SDS011;25333;50.762;4.470;2022-12-07T12:21:48;6.97;;;4.03;;
38972;SDS011;25333;50.762;4.470;2022-12-07T12:24:22;12.35;;;5.05;;
38972;SDS011;25333;50.762;4.470;2022-12-07T12:27:00;8.75;;;4.53;;
38972;SDS011;25333;50.762;4.470;2022-12-07T12:29:39;6.05;;;4.60;;
38972;SDS011;25333;50.762;4.470;2022-12-07T12:32:07;13.32;;;5.28;;
38972;SDS011;25333;50.762;4.470;2022-12-07T12:42:58;8.98;;;4.13;;
38972;SDS011;25333;50.762;4.470;2022-12-07T12:45:28;8.63;;;3.78;;
38972;SDS011;25333;50.762;4.470;2022-12-07T12:48:01;5.13;;;3.45;;
38972;SDS011;25333;50.762;4.470;2022-12-07T12:50:50;8.98;;;4.18;;
38972;SDS011;25333;50.762;4.470;2022-12-07T12:54:03;6.57;;;3.13;;
38972;SDS011;25333;50.762;4.470;2022-12-07T12:56:40;6.25;;;3.00;;
38972;SDS011;25333;50.762;4.470;2022-12-07T12:59:36;6.40;;;2.88;;
38972;SDS011;25333;50.762;4.470;2022-12-07T13:04:50;5.47;;;1.88;;
38972;SDS011;25333;50.762;4.470;2022-12-07T13:15:34;10.00;;;1.80;;
38972;SDS011;25333;50.762;4.470;2022-12-07T13:26:13;7.15;;;2.00;;
38972;SDS011;25333;50.762;4.470;2022-12-07T13:28:49;6.22;;;1.90;;
38972;SDS011;25333;50.762;4.470;2022-12-07T13:33:46;3.80;;;1.40;;
38972;SDS011;25333;50.762;4.470;2022-12-07T13:36:22;5.43;;;2.00;;
38972;SDS011;25333;50.762;4.470;2022-12-07T13:38:57;5.28;;;1.55;;
38972;SDS011;25333;50.762;4.470;2022-12-07T13:41:25;5.53;;;1.45;;
38972;SDS011;25333;50.762;4.470;2022-12-07T13:49:28;3.83;;;1.63;;
38972;SDS011;25333;50.762;4.470;2022-12-07T13:52:18;4.47;;;1.33;;
38972;SDS011;25333;50.762;4.470;2022-12-07T13:54:44;3.78;;;1.33;;
38972;SDS011;25333;50.762;4.470;2022-12-07T13:57:27;4.03;;;1.48;;
38972;SDS011;25333;50.762;4.470;2022-12-07T13:59:55;6.45;;;1.73;;
38972;SDS011;25333;50.762;4.470;2022-12-07T14:02:26;3.75;;;1.60;;
38972;SDS011;25333;50.762;4.470;2022-12-07T14:05:06;7.47;;;2.03;;
38972;SDS011;25333;50.762;4.470;2022-12-07T14:07:48;4.60;;;1.20;;
38972;SDS011;25333;50.762;4.470;2022-12-07T14:12:52;5.57;;;1.85;;
38972;SDS011;25333;50.762;4.470;2022-12-07T14:15:22;3.87;;;1.63;;
38972;SDS011;25333;50.762;4.470;2022-12-07T14:17:51;2.90;;;1.25;;
38972;SDS011;25333;50.762;4.470;2022-12-07T14:21:02;4.25;;;1.88;;
38972;SDS011;25333;50.762;4.470;2022-12-07T14:26:34;4.90;;;1.90;;
38972;SDS011;25333;50.762;4.470;2022-12-07T14:29:42;5.20;;;2.00;;
38972;SDS011;25333;50.762;4.470;2022-12-07T14:31:49;6.45;;;2.03;;
38972;SDS011;25333;50.762;4.470;2022-12-07T14:34:25;3.47;;;1.63;;
38972;SDS011;25333;50.762;4.470;2022-12-07T14:36:51;4.88;;;2.20;;
38972;SDS011;25333;50.762;4.470;2022-12-07T14:39:17;3.63;;;1.98;;
38972;SDS011;25333;50.762;4.470;2022-12-07T14:41:42;3.38;;;1.80;;
38972;SDS011;25333;50.762;4.470;2022-12-07T14:44:16;4.10;;;2.25;;
38972;SDS011;25333;50.762;4.470;2022-12-07T14:46:43;4.55;;;2.40;;
38972;SDS011;25333;50.762;4.470;2022-12-07T14:49:08;5.15;;;2.42;;
38972;SDS011;25333;50.762;4.470;2022-12-07T14:51:35;3.90;;;2.03;;
38972;SDS011;25333;50.762;4.470;2022-12-07T14:54:03;8.90;;;2.40;;
38972;SDS011;25333;50.762;4.470;2022-12-07T14:56:31;4.38;;;2.25;;
38972;SDS011;25333;50.762;4.470;2022-12-07T14:58:56;6.03;;;1.90;;
38972;SDS011;25333;50.762;4.470;2022-12-07T15:01:22;4.03;;;2.00;;
38972;SDS011;25333;50.762;4.470;2022-12-07T15:03:48;2.60;;;1.00;;
38972;SDS011;25333;50.762;4.470;2022-12-07T15:06:14;2.60;;;0.90;;
38972;SDS011;25333;50.762;4.470;2022-12-07T15:08:41;5.15;;;1.05;;
38972;SDS011;25333;50.762;4.470;2022-12-07T15:11:13;1.73;;;0.70;;
38972;SDS011;25333;50.762;4.470;2022-12-07T15:13:39;4.13;;;1.27;;
38972;SDS011;25333;50.762;4.470;2022-12-07T15:16:23;2.92;;;0.47;;
38972;SDS011;25333;50.762;4.470;2022-12-07T15:18:49;2.40;;;0.60;;
38972;SDS011;25333;50.762;4.470;2022-12-07T15:21:15;2.97;;;0.68;;
38972;SDS011;25333;50.762;4.470;2022-12-07T15:23:41;2.60;;;0.60;;
38972;SDS011;25333;50.762;4.470;2022-12-07T15:26:06;3.55;;;1.42;;
38972;SDS011;25333;50.762;4.470;2022-12-07T15:28:33;6.70;;;1.20;;
38972;SDS011;25333;50.762;4.470;2022-12-07T15:30:59;1.95;;;0.63;;
38972;SDS011;25333;50.762;4.470;2022-12-07T15:33:25;2.03;;;0.90;;
38972;SDS011;25333;50.762;4.470;2022-12-07T15:35:50;1.90;;;0.70;;
38972;SDS011;25333;50.762;4.470;2022-12-07T15:38:16;1.55;;;0.68;;
38972;SDS011;25333;50.762;4.470;2022-12-07T15:40:41;1.80;;;0.60;;
38972;SDS011;25333;50.762;4.470;2022-12-07T15:43:10;2.85;;;0.93;;
38972;SDS011;25333;50.762;4.470;2022-12-07T15:45:56;2.85;;;0.88;;
38972;SDS011;25333;50.762;4.470;2022-12-07T15:48:21;2.53;;;0.40;;
38972;SDS011;25333;50.762;4.470;2022-12-07T15:50:47;2.67;;;1.02;;
38972;SDS011;25333;50.762;4.470;2022-12-07T15:53:12;1.73;;;0.90;;
38972;SDS011;25333;50.762;4.470;2022-12-07T15:55:38;3.07;;;0.73;;
38972;SDS011;25333;50.762;4.470;2022-12-07T15:58:05;2.17;;;1.10;;
38972;SDS011;25333;50.762;4.470;2022-12-07T16:00:30;5.93;;;1.20;;
38972;SDS011;25333;50.762;4.470;2022-12-07T16:02:56;2.17;;;1.35;;
38972;SDS011;25333;50.762;4.470;2022-12-07T16:05:21;2.87;;;1.33;;
38972;SDS011;25333;50.762;4.470;2022-12-07T16:07:47;3.58;;;1.20;;
38972;SDS011;25333;50.762;4.470;2022-12-07T16:10:13;4.80;;;1.50;;
38972;SDS011;25333;50.762;4.470;2022-12-07T16:12:38;5.33;;;1.40;;
38972;SDS011;25333;50.762;4.470;2022-12-07T16:15:04;3.80;;;1.92;;
38972;SDS011;25333;50.762;4.470;2022-12-07T16:17:30;4.70;;;2.15;;
38972;SDS011;25333;50.762;4.470;2022-12-07T16:19:56;3.95;;;2.47;;
38972;SDS011;25333;50.762;4.470;2022-12-07T16:22:22;4.75;;;2.67;;
38972;SDS011;25333;50.762;4.470;2022-12-07T16:24:48;6.78;;;3.50;;
38972;SDS011;25333;50.762;4.470;2022-12-07T16:27:13;7.07;;;3.90;;
38972;SDS011;25333;50.762;4.470;2022-12-07T16:29:39;6.38;;;3.47;;
38972;SDS011;25333;50.762;4.470;2022-12-07T16:32:05;7.63;;;3.92;;
38972;SDS011;25333;50.762;4.470;2022-12-07T16:34:30;5.07;;;3.70;;
38972;SDS011;25333;50.762;4.470;2022-12-07T16:36:56;8.27;;;4.47;;
38972;SDS011;25333;50.762;4.470;2022-12-07T16:39:22;6.72;;;4.05;;
38972;SDS011;25333;50.762;4.470;2022-12-07T16:41:47;4.70;;;3.90;;
38972;SDS011;25333;50.762;4.470;2022-12-07T16:44:13;7.10;;;4.10;;
38972;SDS011;25333;50.762;4.470;2022-12-07T16:46:39;6.53;;;4.30;;
38972;SDS011;25333;50.762;4.470;2022-12-07T16:49:05;4.73;;;4.17;;
38972;SDS011;25333;50.762;4.470;2022-12-07T16:51:30;5.20;;;4.68;;
38972;SDS011;25333;50.762;4.470;2022-12-07T16:53:56;5.25;;;4.40;;
38972;SDS011;25333;50.762;4.470;2022-12-07T16:56:22;5.60;;;4.17;;
38972;SDS011;25333;50.762;4.470;2022-12-07T16:58:47;4.90;;;3.73;;